Time;durP1;ratioP1;P1;durP2;ratioP2;P2;SDS_P1;SDS_P2;PMS_P1;PMS_P2;Temp;Humidity;BMP_temperature;BMP_pressure;BME280_temperature;BME280_humidity;BME280_pressure;Samples;Min_cycle;Max_cycle;Signal;HPM_P1;HPM_P2
2022/09/11 00:03:30;;;;;;;3.47;2.63;;;16.20;99.90;;;;;;10471137;28;20580;-68
2022/09/11 00:08:31;;;;;;;3.67;2.70;;;16.20;99.90;;;;;;10476032;28;20215;-69
2022/09/11 00:13:32;;;;;;;3.37;2.77;;;16.20;99.90;;;;;;10469197;28;20257;-69
2022/09/11 00:18:36;;;;;;;3.43;2.63;;;16.20;99.90;;;;;;10469971;28;20284;-68
2022/09/11 00:23:37;;;;;;;3.70;2.77;;;16.20;99.90;;;;;;10462981;28;20220;-68
2022/09/11 00:28:38;;;;;;;3.20;2.90;;;16.20;99.90;;;;;;10476314;28;20314;-68
2022/09/11 00:33:39;;;;;;;4.50;4.10;;;16.10;99.90;;;;;;10477505;28;20229;-68
2022/09/11 00:38:39;;;;;;;3.80;3.07;;;16.00;99.90;;;;;;10468962;28;20261;-69
2022/09/11 00:43:51;;;;;;;4.67;3.17;;;16.00;99.90;;;;;;10468823;28;20219;-68
2022/09/11 00:48:52;;;;;;;4.93;3.30;;;16.00;99.90;;;;;;10475290;28;20223;-69
2022/09/11 00:53:55;;;;;;;5.10;3.13;;;15.90;99.90;;;;;;10467398;28;20207;-69
2022/09/11 00:58:57;;;;;;;3.80;3.43;;;15.90;99.90;;;;;;10469339;28;20693;-69
2022/09/11 01:04:02;;;;;;;3.93;3.43;;;15.90;99.90;;;;;;10473672;28;20223;-69
2022/09/11 01:09:02;;;;;;;3.93;3.40;;;15.90;99.90;;;;;;10486184;28;20304;-68
2022/09/11 01:14:27;;;;;;;5.83;3.80;;;15.90;99.90;;;;;;10482136;28;20265;-68
2022/09/11 01:19:46;;;;;;;5.03;3.93;;;15.90;99.90;;;;;;10505290;28;20257;-68
2022/09/11 01:24:58;;;;;;;6.17;4.80;;;16.00;99.90;;;;;;10458421;28;20243;-70
2022/09/11 01:30:04;;;;;;;5.53;4.90;;;16.00;99.90;;;;;;10481724;28;20216;-68
2022/09/11 01:35:27;;;;;;;5.53;5.13;;;16.00;99.90;;;;;;10489294;28;20207;-70
2022/09/11 01:40:37;;;;;;;7.27;6.57;;;16.00;99.90;;;;;;10478249;28;20215;-68
2022/09/11 01:45:41;;;;;;;6.67;6.07;;;16.00;99.90;;;;;;10474531;28;20219;-69
2022/09/11 01:50:46;;;;;;;6.97;6.30;;;16.00;99.90;;;;;;10488372;28;20227;-69
2022/09/11 01:56:01;;;;;;;7.27;6.57;;;16.00;99.90;;;;;;10498296;28;20223;-70
2022/09/11 02:01:08;;;;;;;7.87;6.60;;;16.00;99.90;;;;;;10484465;28;20234;-71
2022/09/11 02:06:17;;;;;;;8.10;6.20;;;16.00;99.90;;;;;;10484702;28;20591;-68
2022/09/11 02:11:20;;;;;;;8.97;6.83;;;15.90;99.90;;;;;;10481013;28;20741;-68
2022/09/11 02:16:52;;;;;;;9.13;8.20;;;15.80;99.90;;;;;;10482644;28;20226;-70
2022/09/11 02:21:53;;;;;;;7.93;7.23;;;15.70;99.90;;;;;;10468584;28;20588;-68
2022/09/11 02:26:59;;;;;;;8.93;8.13;;;15.50;99.90;;;;;;10476953;28;20234;-69
2022/09/11 02:32:02;;;;;;;11.37;9.97;;;15.40;99.90;;;;;;10479470;28;20219;-68
2022/09/11 02:37:33;;;;;;;10.00;9.03;;;15.40;99.90;;;;;;10478512;28;20598;-69
2022/09/11 02:42:50;;;;;;;11.80;10.70;;;15.30;99.90;;;;;;10471709;28;20606;-68
2022/09/11 02:48:05;;;;;;;12.70;10.13;;;15.40;99.90;;;;;;10468544;28;20711;-68
2022/09/11 02:53:11;;;;;;;10.87;9.77;;;15.40;99.90;;;;;;10478024;28;20621;-68
2022/09/11 02:58:16;;;;;;;10.83;9.80;;;15.40;99.90;;;;;;10476156;28;20297;-69
2022/09/11 03:03:18;;;;;;;10.00;9.10;;;15.40;99.90;;;;;;10474927;28;20228;-69
2022/09/11 03:08:19;;;;;;;11.63;9.73;;;15.40;99.90;;;;;;10479244;28;20224;-69
2022/09/11 03:13:19;;;;;;;8.57;7.77;;;15.40;99.90;;;;;;10475206;28;20570;-69
2022/09/11 03:18:20;;;;;;;9.97;8.23;;;15.40;99.90;;;;;;10478523;28;20249;-68
2022/09/11 03:23:20;;;;;;;9.10;8.37;;;15.40;99.90;;;;;;10480307;28;20283;-69
2022/09/11 03:28:22;;;;;;;11.93;9.80;;;15.50;99.90;;;;;;10472714;28;20277;-69
2022/09/11 03:33:22;;;;;;;11.13;10.03;;;15.50;99.90;;;;;;10478465;28;20239;-69
2022/09/11 03:38:26;;;;;;;13.37;11.10;;;15.50;99.90;;;;;;10473800;28;20251;-68
2022/09/11 03:43:26;;;;;;;11.97;10.80;;;15.60;99.90;;;;;;10479771;28;20247;-68
2022/09/11 03:48:28;;;;;;;12.80;11.63;;;15.60;99.90;;;;;;10477988;28;20659;-68
2022/09/11 03:53:28;;;;;;;12.87;11.67;;;15.60;99.90;;;;;;10471951;28;20243;-68
2022/09/11 03:58:29;;;;;;;13.63;12.43;;;15.60;99.90;;;;;;10477156;28;20254;-70
2022/09/11 04:03:30;;;;;;;15.30;13.13;;;15.60;99.90;;;;;;10478153;28;20310;-69
2022/09/11 04:08:33;;;;;;;13.30;12.20;;;15.60;99.90;;;;;;10466772;28;20695;-69
2022/09/11 04:13:37;;;;;;;15.93;14.50;;;15.50;99.90;;;;;;10478343;28;20243;-69
2022/09/11 04:18:39;;;;;;;15.77;14.33;;;15.50;99.90;;;;;;10462465;28;20219;-69
2022/09/11 04:23:40;;;;;;;15.43;13.83;;;15.60;99.90;;;;;;10470524;28;20234;-69
2022/09/11 04:28:42;;;;;;;17.27;15.67;;;15.60;99.90;;;;;;10470777;28;20705;-69
2022/09/11 04:33:43;;;;;;;16.17;14.77;;;15.60;99.90;;;;;;10477220;28;20223;-69
2022/09/11 04:38:45;;;;;;;17.47;15.87;;;15.60;99.90;;;;;;10468680;28;20227;-68
2022/09/11 04:43:54;;;;;;;17.03;15.33;;;15.50;99.90;;;;;;10475587;28;20635;-69
2022/09/11 04:49:01;;;;;;;19.43;17.53;;;15.50;99.90;;;;;;10475564;28;20224;-69
2022/09/11 04:54:02;;;;;;;17.07;15.40;;;15.50;99.90;;;;;;10471443;28;20694;-69
2022/09/11 04:59:19;;;;;;;21.60;19.50;;;15.50;99.90;;;;;;10468679;28;20277;-69
2022/09/11 05:04:19;;;;;;;19.83;18.03;;;15.50;99.90;;;;;;10475798;28;20242;-69
2022/09/11 05:09:21;;;;;;;21.97;19.97;;;15.50;99.90;;;;;;10469692;28;20327;-68
2022/09/11 05:14:22;;;;;;;18.40;16.73;;;15.50;99.90;;;;;;10474717;28;20260;-68
2022/09/11 05:19:24;;;;;;;20.53;18.60;;;15.50;99.90;;;;;;10470804;28;20214;-70
2022/09/11 05:24:24;;;;;;;19.90;18.00;;;15.40;99.90;;;;;;10468753;28;20229;-69
2022/09/11 05:29:28;;;;;;;21.53;19.63;;;15.50;99.90;;;;;;10475779;28;20226;-69
2022/09/11 05:34:28;;;;;;;19.50;17.53;;;15.50;99.90;;;;;;10469306;28;20215;-69
2022/09/11 05:39:29;;;;;;;19.53;17.77;;;15.60;99.90;;;;;;10467859;28;20691;-69
2022/09/11 05:44:29;;;;;;;15.23;13.87;;;15.70;99.90;;;;;;10475921;28;20280;-69
2022/09/11 05:49:30;;;;;;;17.77;16.13;;;15.80;99.90;;;;;;10468158;28;20223;-68
2022/09/11 05:54:31;;;;;;;18.40;16.70;;;15.90;99.90;;;;;;10481910;28;20230;-68
2022/09/11 05:59:31;;;;;;;18.50;16.80;;;16.00;99.90;;;;;;10476413;28;20224;-69
2022/09/11 06:04:33;;;;;;;20.97;18.97;;;16.00;99.90;;;;;;10475318;28;20227;-69
2022/09/11 06:09:33;;;;;;;19.80;17.87;;;16.10;99.90;;;;;;10478088;28;20305;-69
2022/09/11 06:14:34;;;;;;;18.83;17.03;;;16.10;99.90;;;;;;10478985;28;20298;-69
2022/09/11 06:19:35;;;;;;;18.30;16.50;;;16.10;99.90;;;;;;10481185;28;20218;-70
2022/09/11 06:24:35;;;;;;;20.70;18.80;;;16.30;99.90;;;;;;10466456;28;20236;-70
2022/09/11 06:29:36;;;;;;;19.00;17.40;;;16.40;99.90;;;;;;10481025;28;20571;-70
2022/09/11 06:34:36;;;;;;;19.77;17.80;;;16.50;99.90;;;;;;10474144;28;20230;-70
2022/09/11 06:39:37;;;;;;;16.87;15.47;;;16.70;99.90;;;;;;10481821;28;20225;-70
2022/09/11 06:44:38;;;;;;;16.57;14.97;;;16.90;99.90;;;;;;10473561;28;20330;-71
2022/09/11 06:49:38;;;;;;;13.93;12.73;;;17.00;99.90;;;;;;10479612;28;20279;-70
2022/09/11 06:54:39;;;;;;;13.87;12.63;;;17.40;99.90;;;;;;10473583;28;20275;-70
2022/09/11 06:59:39;;;;;;;12.73;11.10;;;18.20;99.90;;;;;;10480960;28;20223;-70
2022/09/11 07:04:40;;;;;;;10.63;9.63;;;19.00;99.90;;;;;;10473135;28;20225;-69
2022/09/11 07:09:40;;;;;;;9.30;8.43;;;19.80;99.90;;;;;;10480189;28;20227;-69
2022/09/11 07:14:41;;;;;;;8.57;7.87;;;20.20;99.90;;;;;;10479325;28;20208;-69
2022/09/11 07:19:42;;;;;;;10.90;9.90;;;20.30;99.90;;;;;;10473046;28;20246;-68
2022/09/11 07:24:46;;;;;;;10.53;8.43;;;20.30;99.90;;;;;;10480887;28;20218;-69
2022/09/11 07:29:46;;;;;;;11.10;9.10;;;20.60;99.90;;;;;;10470859;28;20242;-69
2022/09/11 07:34:48;;;;;;;7.50;6.80;;;21.30;99.90;;;;;;10471450;28;20214;-70
2022/09/11 07:39:49;;;;;;;12.40;11.10;;;21.80;99.90;;;;;;10476565;28;20219;-70
2022/09/11 07:44:52;;;;;;;10.37;9.37;;;22.10;99.90;;;;;;10472771;28;20210;-70
2022/09/11 07:49:53;;;;;;;9.40;8.50;;;22.90;99.90;;;;;;10471178;28;20212;-70
2022/09/11 07:54:53;;;;;;;9.23;8.27;;;25.00;99.90;;;;;;10473149;28;20223;-70
2022/09/11 07:59:54;;;;;;;13.37;8.53;;;27.30;99.90;;;;;;10476234;28;20277;-70
2022/09/11 08:05:01;;;;;;;12.47;11.20;;;26.40;99.90;;;;;;10471500;28;20219;-70
2022/09/11 08:10:01;;;;;;;12.13;11.03;;;25.20;99.90;;;;;;10473710;28;20219;-70
2022/09/11 08:15:02;;;;;;;12.60;11.30;;;24.10;99.90;;;;;;10472236;28;20210;-69
2022/09/11 08:20:03;;;;;;;12.60;11.40;;;23.20;99.90;;;;;;10472720;28;20212;-69
2022/09/11 08:25:04;;;;;;;9.53;8.63;;;22.50;99.90;;;;;;10472903;28;20241;-68
2022/09/11 08:30:05;;;;;;;13.00;11.80;;;22.20;99.90;;;;;;10467464;28;20234;-70
2022/09/11 08:35:06;;;;;;;13.27;11.87;;;21.70;99.90;;;;;;10471967;28;20196;-69
2022/09/11 08:40:09;;;;;;;13.50;12.20;;;21.20;99.90;;;;;;10472097;28;20557;-68
2022/09/11 08:45:19;;;;;;;10.87;9.87;;;20.80;99.90;;;;;;10472498;28;20185;-69
2022/09/11 08:50:39;;;;;;;10.80;9.70;;;20.70;99.90;;;;;;10475241;28;20586;-70
2022/09/11 08:55:53;;;;;;;12.20;10.90;;;23.60;99.90;;;;;;10469924;28;20235;-70
2022/09/11 09:01:11;;;;;;;11.30;9.80;;;29.10;99.20;;;;;;10468729;28;20738;-70
2022/09/11 09:06:34;;;;;;;9.73;8.93;;;31.60;79.30;;;;;;10476341;28;20222;-70
2022/09/11 09:11:47;;;;;;;11.43;10.33;;;31.30;71.90;;;;;;10468067;28;20698;-69
2022/09/11 09:17:09;;;;;;;14.50;13.13;;;28.60;77.20;;;;;;10463133;28;20225;-69
2022/09/11 09:22:43;;;;;;;14.80;13.40;;;26.20;87.10;;;;;;10471596;28;20227;-69
2022/09/11 09:27:46;;;;;;;17.63;14.03;;;24.30;93.50;;;;;;10466188;28;20219;-70
2022/09/11 09:32:59;;;;;;;14.23;12.30;;;25.50;96.10;;;;;;10482494;28;20216;-69
2022/09/11 09:38:01;;;;;;;12.33;11.03;;;30.50;79.20;;;;;;10477371;28;20305;-70
2022/09/11 09:43:24;;;;;;;13.60;12.40;;;34.30;60.00;;;;;;10478776;28;20216;-69
2022/09/11 09:48:26;;;;;;;15.57;14.07;;;33.70;52.70;;;;;;10481003;28;20782;-68
2022/09/11 09:53:38;;;;;;;14.27;13.00;;;30.30;60.00;;;;;;10476503;28;20590;-68
2022/09/11 09:59:01;;;;;;;14.37;13.07;;;28.10;68.10;;;;;;10467240;28;20225;-69
2022/09/11 10:04:17;;;;;;;16.33;14.73;;;26.70;74.70;;;;;;10475513;28;20260;-69
2022/09/11 10:09:28;;;;;;;15.13;13.63;;;25.00;80.80;;;;;;10474576;28;20240;-69
2022/09/11 10:14:49;;;;;;;12.00;10.80;;;23.90;86.90;;;;;;10475397;28;20211;-69
2022/09/11 10:19:54;;;;;;;13.53;12.13;;;25.80;88.50;;;;;;10469994;28;20241;-70
2022/09/11 10:25:11;;;;;;;13.30;12.03;;;30.60;68.50;;;;;;10479940;28;20386;-70
2022/09/11 10:30:35;;;;;;;10.57;9.57;;;34.40;55.90;;;;;;10494275;28;20293;-70
2022/09/11 10:35:36;;;;;;;9.63;8.50;;;36.30;49.60;;;;;;10473514;28;20314;-70
2022/09/11 10:40:38;;;;;;;8.33;7.53;;;37.60;45.50;;;;;;10473240;28;20750;-70
2022/09/11 10:45:39;;;;;;;9.57;7.83;;;37.00;44.30;;;;;;10480918;28;20222;-69
2022/09/11 10:50:40;;;;;;;10.17;7.73;;;32.70;51.50;;;;;;10477441;28;20606;-69
2022/09/11 10:56:04;;;;;;;9.77;8.43;;;29.30;58.80;;;;;;10473672;28;20302;-69
2022/09/11 11:01:05;;;;;;;14.70;11.00;;;27.00;66.00;;;;;;10491055;28;20230;-68
2022/09/11 11:06:43;;;;;;;10.43;9.33;;;25.50;72.80;;;;;;10480674;28;20227;-68
2022/09/11 11:12:08;;;;;;;11.33;10.30;;;24.50;79.60;;;;;;10463278;28;20633;-69
2022/09/11 11:17:47;;;;;;;11.17;10.07;;;24.00;83.70;;;;;;10476750;28;20223;-70
2022/09/11 11:22:55;;;;;;;9.77;8.77;;;23.90;85.50;;;;;;10463577;28;20220;-69
2022/09/11 11:28:07;;;;;;;8.67;7.77;;;24.00;88.20;;;;;;10471190;28;20378;-69
2022/09/11 11:33:45;;;;;;;9.37;8.37;;;24.00;88.00;;;;;;10476203;28;20211;-68
2022/09/11 11:38:59;;;;;;;10.30;9.27;;;24.00;89.00;;;;;;10462070;28;20215;-69
2022/09/11 11:44:04;;;;;;;9.87;8.40;;;23.80;91.00;;;;;;10476235;28;20240;-69
2022/09/11 11:49:13;;;;;;;8.60;7.80;;;23.60;92.30;;;;;;10476174;28;20281;-68
2022/09/11 11:54:40;;;;;;;9.43;7.90;;;23.50;93.30;;;;;;10475893;28;20693;-70
2022/09/11 11:59:59;;;;;;;8.73;7.93;;;23.30;93.70;;;;;;10463594;28;20234;-69
2022/09/11 12:05:32;;;;;;;8.70;7.83;;;23.30;94.00;;;;;;10474281;28;20257;-69
2022/09/11 12:10:38;;;;;;;9.97;8.33;;;23.30;95.00;;;;;;10478082;28;20602;-69
2022/09/11 12:16:17;;;;;;;9.87;7.87;;;23.30;94.70;;;;;;10460047;28;20302;-69
2022/09/11 12:21:30;;;;;;;8.13;7.33;;;23.30;95.40;;;;;;10471845;28;20254;-70
2022/09/11 12:26:31;;;;;;;8.17;7.03;;;23.50;95.50;;;;;;10468579;28;20223;-70
2022/09/11 12:31:51;;;;;;;8.27;7.03;;;23.60;95.60;;;;;;10475110;28;20231;-70
2022/09/11 12:36:59;;;;;;;8.00;6.37;;;23.60;96.00;;;;;;10465318;28;20223;-70
2022/09/11 12:42:38;;;;;;;6.27;5.67;;;24.00;95.80;;;;;;10473697;28;20310;-69
2022/09/11 12:47:39;;;;;;;6.20;5.60;;;24.40;94.50;;;;;;10422724;28;20223;-71
2022/09/11 12:52:42;;;;;;;7.07;6.20;;;24.80;93.90;;;;;;10458314;28;20212;-69
2022/09/11 12:57:47;;;;;;;8.00;5.63;;;25.00;92.40;;;;;;10465355;28;20212;-69
2022/09/11 13:02:55;;;;;;;7.43;4.70;;;25.20;90.90;;;;;;10472983;28;20227;-70
2022/09/11 13:07:59;;;;;;;4.83;4.33;;;25.00;90.20;;;;;;10470084;28;20220;-70
2022/09/11 13:13:02;;;;;;;6.37;5.23;;;24.90;89.40;;;;;;10471545;28;20244;-70
2022/09/11 13:18:29;;;;;;;7.10;5.43;;;24.70;86.70;;;;;;10475406;28;20618;-70
2022/09/11 13:23:29;;;;;;;6.10;5.10;;;24.60;87.90;;;;;;10468034;28;20220;-69
2022/09/11 13:28:36;;;;;;;5.77;5.27;;;24.20;88.20;;;;;;10474386;28;20223;-70
2022/09/11 13:33:39;;;;;;;6.30;5.60;;;23.70;89.80;;;;;;10459395;28;20208;-69
2022/09/11 13:38:42;;;;;;;6.53;5.80;;;23.60;90.70;;;;;;10468030;28;20239;-68
2022/09/11 13:43:54;;;;;;;5.63;5.10;;;23.50;90.60;;;;;;10450838;28;20740;-70
2022/09/11 13:49:12;;;;;;;8.43;7.00;;;23.70;90.50;;;;;;10471015;28;20218;-68
2022/09/11 13:54:33;;;;;;;5.77;5.27;;;23.30;90.10;;;;;;10471871;28;20271;-70
2022/09/11 13:59:43;;;;;;;7.40;6.70;;;23.20;91.10;;;;;;10466993;28;20233;-70
2022/09/11 14:04:46;;;;;;;5.73;5.20;;;23.20;90.70;;;;;;10468736;28;20252;-69
2022/09/11 14:09:49;;;;;;;6.60;6.00;;;23.20;91.20;;;;;;10473958;28;20305;-69
2022/09/11 14:14:54;;;;;;;7.50;5.70;;;23.20;91.50;;;;;;10474931;28;20683;-69
2022/09/11 14:19:59;;;;;;;7.43;5.77;;;23.20;91.50;;;;;;10480345;28;20236;-69
2022/09/11 14:25:20;;;;;;;6.77;6.07;;;23.30;92.00;;;;;;10473003;28;20249;-69
2022/09/11 14:30:36;;;;;;;8.80;6.20;;;23.50;91.80;;;;;;10479843;28;20357;-70
2022/09/11 14:35:36;;;;;;;5.83;5.00;;;23.90;90.70;;;;;;10474011;28;20329;-70
2022/09/11 14:40:47;;;;;;;6.43;5.83;;;24.00;90.00;;;;;;10489044;28;20305;-69
2022/09/11 14:45:49;;;;;;;4.80;4.33;;;23.80;89.10;;;;;;10474064;28;20216;-70
2022/09/11 14:50:49;;;;;;;5.80;5.30;;;23.70;89.60;;;;;;10474714;28;20231;-70
2022/09/11 14:55:50;;;;;;;5.30;4.77;;;23.60;88.30;;;;;;10473319;28;20253;-68
2022/09/11 15:00:51;;;;;;;6.50;5.37;;;23.40;90.00;;;;;;10478621;28;20278;-69
2022/09/11 15:05:56;;;;;;;4.90;4.40;;;23.30;90.80;;;;;;10474511;28;20592;-68
2022/09/11 15:10:57;;;;;;;11.13;5.30;;;23.30;90.30;;;;;;10477631;28;20242;-69
2022/09/11 15:15:57;;;;;;;5.83;4.27;;;23.20;90.00;;;;;;10476167;28;20898;-71
2022/09/11 15:20:58;;;;;;;6.17;4.57;;;23.20;89.90;;;;;;10476501;28;20223;-68
2022/09/11 15:26:01;;;;;;;4.83;4.37;;;23.10;90.30;;;;;;10475133;28;20234;-69
2022/09/11 15:31:03;;;;;;;4.73;4.33;;;23.10;90.90;;;;;;10473380;28;20238;-69
2022/09/11 15:36:04;;;;;;;5.17;4.70;;;22.90;90.90;;;;;;10466571;28;20223;-69
2022/09/11 15:41:07;;;;;;;4.80;4.40;;;22.80;90.80;;;;;;10486924;28;20247;-70
2022/09/11 15:46:18;;;;;;;5.13;4.63;;;22.70;91.00;;;;;;10471889;28;20221;-68
2022/09/11 15:51:22;;;;;;;4.73;4.33;;;22.50;91.60;;;;;;10474498;28;20227;-69
2022/09/11 15:56:23;;;;;;;4.73;4.23;;;22.40;91.90;;;;;;10474895;28;20701;-68
2022/09/11 16:01:30;;;;;;;5.77;4.77;;;22.30;92.40;;;;;;10464855;28;20232;-70
2022/09/11 16:06:33;;;;;;;4.60;4.17;;;22.20;92.60;;;;;;10472413;28;20320;-70
2022/09/11 16:11:35;;;;;;;5.80;5.30;;;22.10;92.60;;;;;;10458918;28;20546;-70
2022/09/11 16:16:36;;;;;;;5.13;4.63;;;22.00;93.40;;;;;;10476176;28;20781;-72
2022/09/11 16:21:37;;;;;;;6.53;5.93;;;21.90;94.00;;;;;;10475749;28;20226;-68
2022/09/11 16:26:55;;;;;;;6.00;4.43;;;21.80;94.60;;;;;;10481871;28;20711;-72
2022/09/11 16:31:56;;;;;;;7.30;5.27;;;21.70;94.80;;;;;;10461927;28;20238;-72
2022/09/11 16:37:09;;;;;;;5.00;4.40;;;21.60;94.90;;;;;;10476576;28;20222;-70
2022/09/11 16:42:10;;;;;;;4.87;4.47;;;21.50;95.30;;;;;;10479309;28;20225;-70
2022/09/11 16:47:10;;;;;;;5.10;4.60;;;21.30;95.40;;;;;;10472661;28;20216;-69
2022/09/11 16:52:11;;;;;;;4.80;4.40;;;21.20;96.60;;;;;;10473551;28;20593;-69
2022/09/11 16:57:12;;;;;;;5.00;4.60;;;21.10;97.50;;;;;;10472593;28;20314;-70
2022/09/11 17:02:12;;;;;;;6.37;4.87;;;20.90;98.00;;;;;;10473915;28;20286;-69
2022/09/11 17:07:13;;;;;;;5.30;4.60;;;20.80;98.80;;;;;;10478131;28;20316;-70
2022/09/11 17:12:16;;;;;;;4.67;4.27;;;20.60;99.30;;;;;;10471406;28;20236;-70
2022/09/11 17:17:17;;;;;;;5.53;5.00;;;20.40;99.90;;;;;;10469564;28;20655;-69
2022/09/11 17:22:17;;;;;;;6.30;5.70;;;20.20;99.90;;;;;;10478024;28;20313;-70
2022/09/11 17:27:18;;;;;;;7.50;6.70;;;20.00;99.90;;;;;;10470606;28;20218;-69
2022/09/11 17:32:22;;;;;;;7.73;6.53;;;19.80;99.90;;;;;;10472234;28;20233;-70
2022/09/11 17:37:25;;;;;;;6.23;5.57;;;19.60;99.90;;;;;;10476097;28;20211;-70
2022/09/11 17:42:26;;;;;;;7.40;6.17;;;19.40;99.90;;;;;;10471291;28;20234;-69
2022/09/11 17:47:33;;;;;;;7.57;6.00;;;19.20;99.90;;;;;;10470088;28;20216;-70
2022/09/11 17:52:35;;;;;;;6.87;5.77;;;19.00;99.90;;;;;;10483841;28;20236;-70
2022/09/11 17:57:36;;;;;;;7.17;5.43;;;18.90;99.90;;;;;;10482884;28;20234;-70
2022/09/11 18:02:40;;;;;;;7.63;5.30;;;18.70;99.90;;;;;;10478814;28;20694;-70
2022/09/11 18:07:41;;;;;;;7.10;6.40;;;18.60;99.90;;;;;;10458730;28;20744;-72
2022/09/11 18:12:41;;;;;;;7.00;6.20;;;18.50;99.90;;;;;;10474036;28;20237;-73
2022/09/11 18:17:46;;;;;;;7.30;6.20;;;18.30;99.90;;;;;;10473199;28;20994;-70
2022/09/11 18:22:53;;;;;;;7.50;6.23;;;18.20;99.90;;;;;;10464554;28;20309;-72
2022/09/11 18:27:53;;;;;;;8.53;6.10;;;18.10;99.90;;;;;;10479273;28;20713;-70
2022/09/11 18:32:54;;;;;;;7.70;6.73;;;18.10;99.90;;;;;;10474086;28;20214;-72
2022/09/11 18:37:54;;;;;;;8.33;6.90;;;18.00;99.90;;;;;;10480208;28;20228;-73
2022/09/11 18:42:57;;;;;;;7.27;6.67;;;17.90;99.90;;;;;;10472694;28;20242;-72
2022/09/11 18:47:58;;;;;;;7.70;6.97;;;17.80;99.90;;;;;;10476329;28;20707;-70
2022/09/11 18:52:58;;;;;;;7.03;6.33;;;17.70;99.90;;;;;;10478487;28;20223;-73
2022/09/11 18:57:59;;;;;;;8.00;7.20;;;17.70;99.90;;;;;;10478085;28;20852;-70
2022/09/11 19:02:59;;;;;;;9.27;7.80;;;17.60;99.90;;;;;;10473703;28;20232;-71
2022/09/11 19:08:01;;;;;;;9.27;8.37;;;17.50;99.90;;;;;;10469144;28;20208;-71
2022/09/11 19:13:02;;;;;;;9.17;7.50;;;17.40;99.90;;;;;;10474726;28;20243;-70
2022/09/11 19:18:04;;;;;;;8.43;7.63;;;17.40;99.90;;;;;;10476164;28;20279;-69
2022/09/11 19:23:36;;;;;;;9.30;8.30;;;17.30;99.90;;;;;;10505799;27;21290;-72
2022/09/11 19:28:39;;;;;;;9.87;8.17;;;17.20;99.90;;;;;;10462208;28;20580;-72
2022/09/11 19:33:41;;;;;;;10.37;8.53;;;17.20;99.90;;;;;;10459996;28;20215;-73
2022/09/11 19:38:44;;;;;;;9.17;8.07;;;17.10;99.90;;;;;;10460307;28;20230;-73
2022/09/11 19:43:46;;;;;;;10.10;8.23;;;17.10;99.90;;;;;;10468131;28;20592;-73
2022/09/11 19:48:47;;;;;;;10.47;9.37;;;17.00;99.90;;;;;;10467860;28;20222;-73
2022/09/11 19:53:49;;;;;;;9.70;8.73;;;17.00;99.90;;;;;;10469331;28;20703;-73
2022/09/11 19:58:51;;;;;;;10.20;9.20;;;16.90;99.90;;;;;;10454442;28;20319;-73
2022/09/11 20:03:53;;;;;;;10.43;9.33;;;16.80;99.90;;;;;;10465816;28;20315;-72
2022/09/11 20:08:57;;;;;;;10.07;8.90;;;16.80;99.90;;;;;;10456800;28;20671;-73
2022/09/11 20:13:57;;;;;;;9.83;8.73;;;16.80;99.90;;;;;;10463984;28;20234;-73
2022/09/11 20:19:05;;;;;;;10.43;9.43;;;16.70;99.90;;;;;;10456433;28;20222;-73
2022/09/11 20:24:06;;;;;;;10.67;9.60;;;16.60;99.90;;;;;;10458798;28;20277;-72
2022/09/11 20:29:11;;;;;;;12.60;11.37;;;16.60;99.90;;;;;;10460433;28;20266;-73
2022/09/11 20:34:11;;;;;;;11.00;9.87;;;16.50;99.90;;;;;;10440947;28;20348;-73
2022/09/11 20:39:13;;;;;;;14.00;11.17;;;16.50;99.90;;;;;;10432389;28;20240;-75
2022/09/11 20:44:14;;;;;;;13.07;11.10;;;16.40;99.90;;;;;;10436261;28;20270;-74
2022/09/11 20:49:15;;;;;;;14.53;10.30;;;16.40;99.90;;;;;;10431595;28;20639;-72
2022/09/11 20:54:15;;;;;;;13.23;10.83;;;16.30;99.90;;;;;;10429711;28;20216;-69
2022/09/11 20:59:16;;;;;;;11.77;10.67;;;16.30;99.90;;;;;;10430994;28;20227;-70
2022/09/11 21:04:17;;;;;;;12.10;10.90;;;16.20;99.90;;;;;;10430682;28;20299;-73
2022/09/11 21:09:18;;;;;;;11.13;10.10;;;16.20;99.90;;;;;;10430978;28;20716;-71
2022/09/11 21:14:18;;;;;;;11.90;9.97;;;16.20;99.90;;;;;;10437148;28;20220;-68
2022/09/11 21:19:19;;;;;;;11.67;10.47;;;16.10;99.90;;;;;;10440859;28;20223;-70
2022/09/11 21:24:19;;;;;;;10.93;9.83;;;16.10;99.90;;;;;;10427593;28;20223;-71
2022/09/11 21:29:20;;;;;;;11.43;10.17;;;16.00;99.90;;;;;;10431807;28;20588;-68
2022/09/11 21:34:20;;;;;;;10.63;9.63;;;16.00;99.90;;;;;;10433022;28;20219;-69
2022/09/11 21:39:21;;;;;;;11.33;9.67;;;16.00;99.90;;;;;;10431156;28;20710;-70
2022/09/11 21:44:22;;;;;;;13.43;11.73;;;16.00;99.90;;;;;;10428352;28;20274;-70
2022/09/11 21:49:22;;;;;;;12.17;10.00;;;16.00;99.90;;;;;;10427670;28;20212;-70
2022/09/11 21:54:23;;;;;;;10.40;9.07;;;16.00;99.90;;;;;;10436144;28;20713;-70
2022/09/11 21:59:23;;;;;;;10.40;9.37;;;15.90;99.90;;;;;;10429361;28;20228;-70
2022/09/11 22:04:24;;;;;;;9.53;8.53;;;15.90;99.90;;;;;;10428757;28;20583;-70
2022/09/11 22:09:28;;;;;;;12.37;9.60;;;15.80;99.90;;;;;;10429061;28;20217;-73
2022/09/11 22:14:31;;;;;;;10.50;9.37;;;15.80;99.90;;;;;;10436532;28;20569;-71
2022/09/11 22:19:31;;;;;;;9.70;8.80;;;15.70;99.90;;;;;;10429825;28;20313;-70
2022/09/11 22:24:32;;;;;;;10.57;9.10;;;15.70;99.90;;;;;;10430193;28;20258;-71
2022/09/11 22:29:33;;;;;;;10.13;8.83;;;15.60;99.90;;;;;;10425666;28;20211;-73
2022/09/11 22:34:35;;;;;;;10.37;9.47;;;15.60;99.90;;;;;;10440367;28;20220;-72
2022/09/11 22:39:36;;;;;;;9.50;8.60;;;15.50;99.90;;;;;;10427250;28;20231;-71
2022/09/11 22:44:36;;;;;;;9.87;8.97;;;15.40;99.90;;;;;;10430610;28;20220;-71
2022/09/11 22:49:37;;;;;;;9.60;8.60;;;15.40;99.90;;;;;;10420518;28;20597;-71
2022/09/11 22:54:38;;;;;;;11.00;9.90;;;15.40;99.90;;;;;;10435683;28;20243;-71
2022/09/11 22:59:38;;;;;;;13.03;9.37;;;15.40;99.90;;;;;;10414978;28;20577;-73
2022/09/11 23:04:39;;;;;;;12.47;8.90;;;15.30;99.90;;;;;;10428161;28;20281;-72
2022/09/11 23:09:39;;;;;;;11.17;9.53;;;15.40;99.90;;;;;;10423596;28;20220;-71
2022/09/11 23:14:40;;;;;;;13.50;9.57;;;15.30;99.90;;;;;;10434001;28;20704;-72
2022/09/11 23:19:40;;;;;;;11.97;9.20;;;15.30;99.90;;;;;;10429044;28;20391;-72
2022/09/11 23:24:44;;;;;;;11.17;9.40;;;15.20;99.90;;;;;;10431241;28;20271;-72
2022/09/11 23:29:45;;;;;;;12.30;9.27;;;15.10;99.90;;;;;;10430094;28;20221;-72
2022/09/11 23:34:45;;;;;;;9.60;8.70;;;15.00;99.90;;;;;;10424034;28;20712;-71
2022/09/11 23:39:46;;;;;;;11.00;9.27;;;15.00;99.90;;;;;;10435228;28;20765;-73
2022/09/11 23:44:46;;;;;;;9.40;8.47;;;14.90;99.90;;;;;;10428139;28;20228;-73
2022/09/11 23:49:47;;;;;;;11.70;8.83;;;14.90;99.90;;;;;;10431253;28;20282;-75
2022/09/11 23:54:51;;;;;;;11.30;9.37;;;14.80;99.90;;;;;;10429035;28;20212;-74
2022/09/11 23:59:51;;;;;;;8.87;7.97;;;14.80;99.90;;;;;;10432749;28;20227;-74
